sensor_id;sensor_type;location;lat;lon;timestamp;P1;durP1;ratioP1;P2;durP2;ratioP2
64500;SDS011;50874;24.150;-110.320;2024-03-25T00:01:03;40.22;;;4.05;;
64500;SDS011;50874;24.150;-110.320;2024-03-25T00:03:30;22.45;;;3.13;;
64500;SDS011;50874;24.150;-110.320;2024-03-25T00:05:56;28.70;;;3.80;;
64500;SDS011;50874;24.150;-110.320;2024-03-25T00:08:23;21.40;;;3.80;;
64500;SDS011;50874;24.150;-110.320;2024-03-25T00:10:49;33.35;;;3.10;;
64500;SDS011;50874;24.150;-110.320;2024-03-25T00:13:16;22.75;;;3.10;;
64500;SDS011;50874;24.150;-110.320;2024-03-25T00:15:42;23.70;;;3.42;;
64500;SDS011;50874;24.150;-110.320;2024-03-25T00:18:09;24.40;;;3.38;;
64500;SDS011;50874;24.150;-110.320;2024-03-25T00:20:36;25.50;;;3.17;;
64500;SDS011;50874;24.150;-110.320;2024-03-25T00:23:03;19.88;;;3.65;;
64500;SDS011;50874;24.150;-110.320;2024-03-25T00:25:29;18.30;;;2.95;;
64500;SDS011;50874;24.150;-110.320;2024-03-25T00:27:56;24.70;;;3.55;;
64500;SDS011;50874;24.150;-110.320;2024-03-25T00:30:26;28.02;;;2.97;;
64500;SDS011;50874;24.150;-110.320;2024-03-25T00:32:52;15.13;;;3.00;;
64500;SDS011;50874;24.150;-110.320;2024-03-25T00:35:19;21.67;;;3.20;;
64500;SDS011;50874;24.150;-110.320;2024-03-25T00:37:45;22.00;;;4.03;;
64500;SDS011;50874;24.150;-110.320;2024-03-25T00:40:12;17.48;;;3.13;;
64500;SDS011;50874;24.150;-110.320;2024-03-25T00:42:38;18.00;;;3.75;;
64500;SDS011;50874;24.150;-110.320;2024-03-25T00:45:05;20.60;;;3.55;;
64500;SDS011;50874;24.150;-110.320;2024-03-25T00:47:32;25.25;;;3.25;;
64500;SDS011;50874;24.150;-110.320;2024-03-25T00:49:59;31.83;;;4.80;;
64500;SDS011;50874;24.150;-110.320;2024-03-25T00:52:25;22.00;;;3.17;;
64500;SDS011;50874;24.150;-110.320;2024-03-25T00:54:51;20.95;;;3.47;;
64500;SDS011;50874;24.150;-110.320;2024-03-25T00:57:18;25.27;;;3.50;;
64500;SDS011;50874;24.150;-110.320;2024-03-25T00:59:45;25.17;;;4.22;;
64500;SDS011;50874;24.150;-110.320;2024-03-25T01:02:11;21.42;;;3.88;;
64500;SDS011;50874;24.150;-110.320;2024-03-25T01:04:37;26.48;;;3.85;;
64500;SDS011;50874;24.150;-110.320;2024-03-25T01:07:04;28.17;;;3.63;;
64500;SDS011;50874;24.150;-110.320;2024-03-25T01:09:30;23.58;;;2.67;;
64500;SDS011;50874;24.150;-110.320;2024-03-25T01:11:57;23.73;;;2.65;;
64500;SDS011;50874;24.150;-110.320;2024-03-25T01:14:23;22.50;;;3.13;;
64500;SDS011;50874;24.150;-110.320;2024-03-25T01:16:50;31.20;;;3.75;;
64500;SDS011;50874;24.150;-110.320;2024-03-25T01:19:16;19.10;;;2.90;;
64500;SDS011;50874;24.150;-110.320;2024-03-25T01:21:43;30.42;;;3.20;;
64500;SDS011;50874;24.150;-110.320;2024-03-25T01:24:09;19.50;;;2.72;;
64500;SDS011;50874;24.150;-110.320;2024-03-25T01:26:36;15.13;;;3.63;;
64500;SDS011;50874;24.150;-110.320;2024-03-25T01:29:02;25.17;;;3.25;;
64500;SDS011;50874;24.150;-110.320;2024-03-25T01:31:29;18.85;;;2.58;;
64500;SDS011;50874;24.150;-110.320;2024-03-25T01:33:55;16.23;;;2.95;;
64500;SDS011;50874;24.150;-110.320;2024-03-25T01:36:22;18.42;;;3.00;;
64500;SDS011;50874;24.150;-110.320;2024-03-25T01:38:48;23.70;;;3.58;;
64500;SDS011;50874;24.150;-110.320;2024-03-25T01:41:19;15.38;;;2.60;;
64500;SDS011;50874;24.150;-110.320;2024-03-25T01:43:48;18.33;;;2.42;;
64500;SDS011;50874;24.150;-110.320;2024-03-25T01:46:15;14.38;;;2.75;;
64500;SDS011;50874;24.150;-110.320;2024-03-25T01:48:44;16.83;;;3.20;;
64500;SDS011;50874;24.150;-110.320;2024-03-25T01:51:11;16.50;;;3.00;;
64500;SDS011;50874;24.150;-110.320;2024-03-25T01:53:40;15.27;;;2.65;;
64500;SDS011;50874;24.150;-110.320;2024-03-25T01:56:07;14.38;;;2.80;;
64500;SDS011;50874;24.150;-110.320;2024-03-25T01:58:35;15.70;;;2.17;;
64500;SDS011;50874;24.150;-110.320;2024-03-25T02:01:03;14.75;;;2.70;;
64500;SDS011;50874;24.150;-110.320;2024-03-25T02:03:30;14.48;;;3.05;;
64500;SDS011;50874;24.150;-110.320;2024-03-25T02:05:58;14.23;;;2.53;;
64500;SDS011;50874;24.150;-110.320;2024-03-25T02:08:29;16.85;;;2.88;;
64500;SDS011;50874;24.150;-110.320;2024-03-25T02:10:57;15.85;;;2.45;;
64500;SDS011;50874;24.150;-110.320;2024-03-25T02:13:24;18.80;;;2.78;;
64500;SDS011;50874;24.150;-110.320;2024-03-25T02:15:51;19.05;;;2.50;;
64500;SDS011;50874;24.150;-110.320;2024-03-25T02:18:18;12.93;;;2.30;;
64500;SDS011;50874;24.150;-110.320;2024-03-25T02:20:45;17.88;;;2.95;;
64500;SDS011;50874;24.150;-110.320;2024-03-25T02:23:12;22.73;;;3.03;;
64500;SDS011;50874;24.150;-110.320;2024-03-25T02:25:40;15.95;;;2.28;;
64500;SDS011;50874;24.150;-110.320;2024-03-25T02:28:08;16.83;;;2.53;;
64500;SDS011;50874;24.150;-110.320;2024-03-25T02:30:35;21.13;;;3.92;;
64500;SDS011;50874;24.150;-110.320;2024-03-25T02:33:05;19.52;;;3.05;;
64500;SDS011;50874;24.150;-110.320;2024-03-25T02:35:32;14.52;;;2.65;;
64500;SDS011;50874;24.150;-110.320;2024-03-25T02:37:59;29.15;;;3.95;;
64500;SDS011;50874;24.150;-110.320;2024-03-25T02:40:26;12.52;;;2.72;;
64500;SDS011;50874;24.150;-110.320;2024-03-25T02:42:52;17.60;;;2.47;;
64500;SDS011;50874;24.150;-110.320;2024-03-25T02:45:19;31.83;;;3.38;;
64500;SDS011;50874;24.150;-110.320;2024-03-25T02:47:45;17.67;;;3.28;;
64500;SDS011;50874;24.150;-110.320;2024-03-25T02:50:12;14.30;;;2.40;;
64500;SDS011;50874;24.150;-110.320;2024-03-25T02:52:39;14.18;;;2.75;;
64500;SDS011;50874;24.150;-110.320;2024-03-25T02:55:05;20.02;;;2.50;;
64500;SDS011;50874;24.150;-110.320;2024-03-25T02:57:32;15.98;;;2.42;;
64500;SDS011;50874;24.150;-110.320;2024-03-25T02:59:58;15.80;;;2.78;;
64500;SDS011;50874;24.150;-110.320;2024-03-25T03:02:25;20.33;;;2.35;;
64500;SDS011;50874;24.150;-110.320;2024-03-25T03:04:51;21.63;;;2.72;;
64500;SDS011;50874;24.150;-110.320;2024-03-25T03:07:18;16.17;;;2.78;;
64500;SDS011;50874;24.150;-110.320;2024-03-25T03:09:44;13.48;;;2.22;;
64500;SDS011;50874;24.150;-110.320;2024-03-25T03:12:11;16.17;;;2.78;;
64500;SDS011;50874;24.150;-110.320;2024-03-25T03:14:37;21.80;;;3.47;;
64500;SDS011;50874;24.150;-110.320;2024-03-25T03:17:04;17.60;;;2.85;;
64500;SDS011;50874;24.150;-110.320;2024-03-25T03:19:31;18.38;;;3.10;;
64500;SDS011;50874;24.150;-110.320;2024-03-25T03:21:57;20.88;;;3.10;;
64500;SDS011;50874;24.150;-110.320;2024-03-25T03:24:24;29.13;;;4.15;;
64500;SDS011;50874;24.150;-110.320;2024-03-25T03:26:50;15.98;;;2.75;;
64500;SDS011;50874;24.150;-110.320;2024-03-25T03:29:17;12.88;;;2.90;;
64500;SDS011;50874;24.150;-110.320;2024-03-25T03:31:43;21.42;;;3.53;;
64500;SDS011;50874;24.150;-110.320;2024-03-25T03:34:10;21.48;;;2.70;;
64500;SDS011;50874;24.150;-110.320;2024-03-25T03:36:36;24.92;;;3.00;;
64500;SDS011;50874;24.150;-110.320;2024-03-25T03:39:03;12.98;;;2.45;;
64500;SDS011;50874;24.150;-110.320;2024-03-25T03:41:29;10.43;;;2.28;;
64500;SDS011;50874;24.150;-110.320;2024-03-25T03:43:56;16.15;;;2.85;;
64500;SDS011;50874;24.150;-110.320;2024-03-25T03:46:22;17.55;;;2.83;;
64500;SDS011;50874;24.150;-110.320;2024-03-25T03:48:49;12.43;;;2.72;;
64500;SDS011;50874;24.150;-110.320;2024-03-25T03:51:15;14.43;;;2.78;;
64500;SDS011;50874;24.150;-110.320;2024-03-25T03:53:42;18.10;;;2.50;;
64500;SDS011;50874;24.150;-110.320;2024-03-25T03:56:08;19.25;;;2.40;;
64500;SDS011;50874;24.150;-110.320;2024-03-25T03:58:35;11.13;;;2.72;;
64500;SDS011;50874;24.150;-110.320;2024-03-25T04:01:01;26.52;;;3.15;;
64500;SDS011;50874;24.150;-110.320;2024-03-25T04:03:29;13.63;;;2.30;;
64500;SDS011;50874;24.150;-110.320;2024-03-25T04:05:56;15.48;;;2.20;;
64500;SDS011;50874;24.150;-110.320;2024-03-25T04:08:22;16.55;;;2.63;;
64500;SDS011;50874;24.150;-110.320;2024-03-25T04:10:49;11.15;;;2.08;;
64500;SDS011;50874;24.150;-110.320;2024-03-25T04:13:15;19.27;;;2.80;;
64500;SDS011;50874;24.150;-110.320;2024-03-25T04:15:42;11.45;;;2.30;;
64500;SDS011;50874;24.150;-110.320;2024-03-25T04:18:09;36.22;;;2.97;;
64500;SDS011;50874;24.150;-110.320;2024-03-25T04:20:36;14.60;;;2.72;;
64500;SDS011;50874;24.150;-110.320;2024-03-25T04:23:04;12.43;;;2.20;;
64500;SDS011;50874;24.150;-110.320;2024-03-25T04:25:32;20.30;;;3.40;;
64500;SDS011;50874;24.150;-110.320;2024-03-25T04:28:05;10.90;;;2.23;;
64500;SDS011;50874;24.150;-110.320;2024-03-25T04:30:32;15.18;;;2.67;;
64500;SDS011;50874;24.150;-110.320;2024-03-25T04:32:59;14.70;;;2.83;;
64500;SDS011;50874;24.150;-110.320;2024-03-25T04:35:26;10.55;;;2.55;;
64500;SDS011;50874;24.150;-110.320;2024-03-25T04:37:53;15.85;;;2.00;;
64500;SDS011;50874;24.150;-110.320;2024-03-25T04:40:23;17.00;;;2.40;;
64500;SDS011;50874;24.150;-110.320;2024-03-25T04:42:49;12.38;;;2.08;;
64500;SDS011;50874;24.150;-110.320;2024-03-25T04:45:16;11.60;;;2.50;;
64500;SDS011;50874;24.150;-110.320;2024-03-25T04:47:42;13.13;;;2.13;;
64500;SDS011;50874;24.150;-110.320;2024-03-25T04:50:09;15.82;;;3.00;;
64500;SDS011;50874;24.150;-110.320;2024-03-25T04:52:36;12.95;;;2.05;;
64500;SDS011;50874;24.150;-110.320;2024-03-25T04:55:02;19.02;;;2.53;;
64500;SDS011;50874;24.150;-110.320;2024-03-25T04:57:29;13.40;;;1.88;;
64500;SDS011;50874;24.150;-110.320;2024-03-25T04:59:55;19.80;;;3.30;;
64500;SDS011;50874;24.150;-110.320;2024-03-25T05:02:22;18.42;;;2.63;;
64500;SDS011;50874;24.150;-110.320;2024-03-25T05:04:48;15.55;;;3.30;;
64500;SDS011;50874;24.150;-110.320;2024-03-25T05:07:15;17.25;;;2.85;;
64500;SDS011;50874;24.150;-110.320;2024-03-25T05:09:41;16.00;;;2.58;;
64500;SDS011;50874;24.150;-110.320;2024-03-25T05:12:08;27.02;;;3.75;;
64500;SDS011;50874;24.150;-110.320;2024-03-25T05:14:34;14.27;;;2.97;;
64500;SDS011;50874;24.150;-110.320;2024-03-25T05:17:00;17.98;;;2.72;;
64500;SDS011;50874;24.150;-110.320;2024-03-25T05:19:28;15.63;;;2.97;;
64500;SDS011;50874;24.150;-110.320;2024-03-25T05:21:55;11.90;;;2.30;;
64500;SDS011;50874;24.150;-110.320;2024-03-25T05:24:21;20.42;;;2.58;;
64500;SDS011;50874;24.150;-110.320;2024-03-25T05:26:48;8.23;;;1.83;;
64500;SDS011;50874;24.150;-110.320;2024-03-25T05:29:14;13.90;;;2.03;;
64500;SDS011;50874;24.150;-110.320;2024-03-25T05:31:54;11.85;;;2.15;;
64500;SDS011;50874;24.150;-110.320;2024-03-25T05:34:25;13.52;;;2.22;;
64500;SDS011;50874;24.150;-110.320;2024-03-25T05:36:52;31.25;;;3.13;;
64500;SDS011;50874;24.150;-110.320;2024-03-25T05:39:19;10.32;;;1.80;;
64500;SDS011;50874;24.150;-110.320;2024-03-25T05:41:46;12.95;;;2.85;;
64500;SDS011;50874;24.150;-110.320;2024-03-25T05:44:13;20.27;;;2.55;;
64500;SDS011;50874;24.150;-110.320;2024-03-25T05:46:39;21.65;;;3.17;;
64500;SDS011;50874;24.150;-110.320;2024-03-25T05:49:06;13.20;;;2.10;;
64500;SDS011;50874;24.150;-110.320;2024-03-25T05:51:33;10.65;;;1.60;;
64500;SDS011;50874;24.150;-110.320;2024-03-25T05:53:59;11.95;;;2.92;;
64500;SDS011;50874;24.150;-110.320;2024-03-25T05:56:26;8.82;;;1.73;;
64500;SDS011;50874;24.150;-110.320;2024-03-25T05:58:59;10.30;;;2.03;;
64500;SDS011;50874;24.150;-110.320;2024-03-25T06:01:26;18.90;;;2.30;;
64500;SDS011;50874;24.150;-110.320;2024-03-25T06:03:53;10.07;;;1.58;;
64500;SDS011;50874;24.150;-110.320;2024-03-25T06:06:19;10.43;;;1.58;;
64500;SDS011;50874;24.150;-110.320;2024-03-25T06:08:46;13.48;;;2.83;;
64500;SDS011;50874;24.150;-110.320;2024-03-25T06:11:13;8.80;;;1.80;;
64500;SDS011;50874;24.150;-110.320;2024-03-25T06:13:40;10.55;;;1.83;;
64500;SDS011;50874;24.150;-110.320;2024-03-25T06:16:07;15.95;;;1.58;;
64500;SDS011;50874;24.150;-110.320;2024-03-25T06:18:33;10.48;;;2.17;;
64500;SDS011;50874;24.150;-110.320;2024-03-25T06:21:00;8.05;;;2.05;;
64500;SDS011;50874;24.150;-110.320;2024-03-25T06:23:27;14.35;;;2.60;;
64500;SDS011;50874;24.150;-110.320;2024-03-25T06:25:54;12.02;;;2.08;;
64500;SDS011;50874;24.150;-110.320;2024-03-25T06:28:21;13.68;;;2.22;;
64500;SDS011;50874;24.150;-110.320;2024-03-25T06:30:48;10.50;;;2.20;;
64500;SDS011;50874;24.150;-110.320;2024-03-25T06:33:34;13.75;;;2.33;;
64500;SDS011;50874;24.150;-110.320;2024-03-25T06:36:19;12.05;;;2.58;;
64500;SDS011;50874;24.150;-110.320;2024-03-25T06:38:56;17.95;;;2.53;;
64500;SDS011;50874;24.150;-110.320;2024-03-25T06:41:23;16.65;;;2.08;;
64500;SDS011;50874;24.150;-110.320;2024-03-25T06:43:49;12.43;;;3.08;;
64500;SDS011;50874;24.150;-110.320;2024-03-25T06:46:16;8.95;;;1.88;;
64500;SDS011;50874;24.150;-110.320;2024-03-25T06:48:42;14.85;;;2.20;;
64500;SDS011;50874;24.150;-110.320;2024-03-25T06:51:09;7.43;;;1.80;;
64500;SDS011;50874;24.150;-110.320;2024-03-25T06:53:35;9.13;;;1.85;;
64500;SDS011;50874;24.150;-110.320;2024-03-25T06:56:02;14.88;;;2.28;;
64500;SDS011;50874;24.150;-110.320;2024-03-25T06:58:28;10.65;;;1.80;;
64500;SDS011;50874;24.150;-110.320;2024-03-25T07:00:56;8.18;;;1.88;;
64500;SDS011;50874;24.150;-110.320;2024-03-25T07:05:55;10.57;;;1.42;;
64500;SDS011;50874;24.150;-110.320;2024-03-25T07:08:22;11.88;;;2.50;;
64500;SDS011;50874;24.150;-110.320;2024-03-25T07:10:48;9.18;;;1.98;;
64500;SDS011;50874;24.150;-110.320;2024-03-25T07:13:15;10.80;;;1.80;;
64500;SDS011;50874;24.150;-110.320;2024-03-25T07:15:42;31.52;;;2.90;;
64500;SDS011;50874;24.150;-110.320;2024-03-25T07:18:09;17.67;;;2.53;;
64500;SDS011;50874;24.150;-110.320;2024-03-25T07:20:39;6.88;;;1.88;;
64500;SDS011;50874;24.150;-110.320;2024-03-25T07:23:06;14.73;;;2.15;;
64500;SDS011;50874;24.150;-110.320;2024-03-25T07:25:32;10.90;;;1.80;;
64500;SDS011;50874;24.150;-110.320;2024-03-25T07:27:59;17.10;;;2.55;;
64500;SDS011;50874;24.150;-110.320;2024-03-25T07:30:26;10.30;;;1.85;;
64500;SDS011;50874;24.150;-110.320;2024-03-25T07:32:56;9.55;;;1.70;;
64500;SDS011;50874;24.150;-110.320;2024-03-25T07:35:23;13.25;;;2.28;;
64500;SDS011;50874;24.150;-110.320;2024-03-25T07:37:50;11.48;;;2.33;;
64500;SDS011;50874;24.150;-110.320;2024-03-25T07:40:21;14.27;;;2.30;;
64500;SDS011;50874;24.150;-110.320;2024-03-25T07:42:48;7.40;;;1.30;;
64500;SDS011;50874;24.150;-110.320;2024-03-25T07:45:15;18.33;;;2.72;;
64500;SDS011;50874;24.150;-110.320;2024-03-25T07:47:42;18.70;;;1.75;;
64500;SDS011;50874;24.150;-110.320;2024-03-25T07:50:08;13.48;;;2.03;;
64500;SDS011;50874;24.150;-110.320;2024-03-25T07:52:35;16.48;;;1.88;;
64500;SDS011;50874;24.150;-110.320;2024-03-25T07:55:08;13.48;;;1.63;;
64500;SDS011;50874;24.150;-110.320;2024-03-25T07:57:34;10.13;;;1.33;;
64500;SDS011;50874;24.150;-110.320;2024-03-25T08:00:02;11.43;;;2.20;;
64500;SDS011;50874;24.150;-110.320;2024-03-25T08:02:34;10.07;;;2.50;;
64500;SDS011;50874;24.150;-110.320;2024-03-25T08:05:01;14.05;;;2.00;;
64500;SDS011;50874;24.150;-110.320;2024-03-25T08:07:27;14.63;;;2.63;;
64500;SDS011;50874;24.150;-110.320;2024-03-25T08:09:53;14.85;;;2.55;;
64500;SDS011;50874;24.150;-110.320;2024-03-25T08:12:20;16.42;;;2.67;;
64500;SDS011;50874;24.150;-110.320;2024-03-25T08:14:46;10.85;;;1.90;;
64500;SDS011;50874;24.150;-110.320;2024-03-25T08:17:13;7.13;;;2.08;;
64500;SDS011;50874;24.150;-110.320;2024-03-25T08:19:39;14.18;;;2.05;;
64500;SDS011;50874;24.150;-110.320;2024-03-25T08:22:06;16.33;;;1.85;;
64500;SDS011;50874;24.150;-110.320;2024-03-25T08:24:32;7.53;;;1.52;;
64500;SDS011;50874;24.150;-110.320;2024-03-25T08:26:59;8.75;;;1.80;;
64500;SDS011;50874;24.150;-110.320;2024-03-25T08:29:25;13.95;;;2.08;;
64500;SDS011;50874;24.150;-110.320;2024-03-25T08:31:51;10.95;;;1.98;;
64500;SDS011;50874;24.150;-110.320;2024-03-25T08:34:18;12.52;;;1.88;;
64500;SDS011;50874;24.150;-110.320;2024-03-25T08:36:45;14.18;;;2.67;;
64500;SDS011;50874;24.150;-110.320;2024-03-25T08:39:11;19.65;;;2.33;;
64500;SDS011;50874;24.150;-110.320;2024-03-25T08:41:38;19.02;;;2.75;;
64500;SDS011;50874;24.150;-110.320;2024-03-25T08:44:04;11.93;;;1.95;;
64500;SDS011;50874;24.150;-110.320;2024-03-25T08:46:31;12.57;;;2.05;;
64500;SDS011;50874;24.150;-110.320;2024-03-25T08:48:58;11.70;;;2.22;;
64500;SDS011;50874;24.150;-110.320;2024-03-25T08:51:24;17.63;;;1.90;;
64500;SDS011;50874;24.150;-110.320;2024-03-25T08:53:50;11.95;;;1.80;;
64500;SDS011;50874;24.150;-110.320;2024-03-25T08:56:17;21.65;;;2.25;;
64500;SDS011;50874;24.150;-110.320;2024-03-25T08:58:43;10.65;;;2.00;;
64500;SDS011;50874;24.150;-110.320;2024-03-25T09:01:10;12.43;;;1.95;;
64500;SDS011;50874;24.150;-110.320;2024-03-25T09:03:39;12.82;;;2.13;;
64500;SDS011;50874;24.150;-110.320;2024-03-25T09:06:06;15.63;;;2.72;;
64500;SDS011;50874;24.150;-110.320;2024-03-25T09:08:33;11.07;;;1.80;;
64500;SDS011;50874;24.150;-110.320;2024-03-25T09:11:19;15.38;;;2.60;;
64500;SDS011;50874;24.150;-110.320;2024-03-25T09:13:46;7.10;;;1.83;;
64500;SDS011;50874;24.150;-110.320;2024-03-25T09:16:12;12.07;;;1.92;;
64500;SDS011;50874;24.150;-110.320;2024-03-25T09:18:39;9.93;;;1.80;;
64500;SDS011;50874;24.150;-110.320;2024-03-25T09:21:05;12.20;;;2.10;;
64500;SDS011;50874;24.150;-110.320;2024-03-25T09:23:31;7.45;;;1.45;;
64500;SDS011;50874;24.150;-110.320;2024-03-25T09:25:58;13.23;;;2.47;;
64500;SDS011;50874;24.150;-110.320;2024-03-25T09:28:24;13.40;;;1.77;;
64500;SDS011;50874;24.150;-110.320;2024-03-25T09:30:51;10.38;;;1.63;;
64500;SDS011;50874;24.150;-110.320;2024-03-25T09:33:17;14.20;;;1.95;;
64500;SDS011;50874;24.150;-110.320;2024-03-25T09:35:44;13.38;;;1.88;;
64500;SDS011;50874;24.150;-110.320;2024-03-25T09:38:11;16.15;;;2.25;;
64500;SDS011;50874;24.150;-110.320;2024-03-25T09:40:40;16.25;;;2.15;;
64500;SDS011;50874;24.150;-110.320;2024-03-25T09:43:12;23.83;;;2.65;;
64500;SDS011;50874;24.150;-110.320;2024-03-25T09:45:47;19.70;;;1.85;;
64500;SDS011;50874;24.150;-110.320;2024-03-25T09:48:15;14.30;;;2.22;;
64500;SDS011;50874;24.150;-110.320;2024-03-25T09:50:44;9.93;;;1.80;;
64500;SDS011;50874;24.150;-110.320;2024-03-25T09:53:12;13.60;;;2.00;;
64500;SDS011;50874;24.150;-110.320;2024-03-25T09:55:39;17.13;;;2.63;;
64500;SDS011;50874;24.150;-110.320;2024-03-25T09:58:05;9.93;;;2.28;;
64500;SDS011;50874;24.150;-110.320;2024-03-25T10:00:32;8.55;;;1.85;;
64500;SDS011;50874;24.150;-110.320;2024-03-25T10:02:59;9.05;;;1.45;;
64500;SDS011;50874;24.150;-110.320;2024-03-25T10:05:26;7.82;;;1.67;;
64500;SDS011;50874;24.150;-110.320;2024-03-25T10:07:52;11.85;;;2.10;;
64500;SDS011;50874;24.150;-110.320;2024-03-25T10:10:19;10.98;;;1.90;;
64500;SDS011;50874;24.150;-110.320;2024-03-25T10:12:46;12.77;;;2.05;;
64500;SDS011;50874;24.150;-110.320;2024-03-25T10:15:16;10.95;;;3.25;;
64500;SDS011;50874;24.150;-110.320;2024-03-25T10:17:43;13.52;;;2.30;;
64500;SDS011;50874;24.150;-110.320;2024-03-25T10:20:16;14.73;;;2.72;;
64500;SDS011;50874;24.150;-110.320;2024-03-25T10:22:42;15.32;;;2.50;;
64500;SDS011;50874;24.150;-110.320;2024-03-25T10:25:26;10.90;;;2.08;;
64500;SDS011;50874;24.150;-110.320;2024-03-25T10:27:57;7.25;;;1.70;;
64500;SDS011;50874;24.150;-110.320;2024-03-25T10:30:25;11.00;;;1.90;;
64500;SDS011;50874;24.150;-110.320;2024-03-25T10:32:59;13.75;;;1.75;;
64500;SDS011;50874;24.150;-110.320;2024-03-25T10:35:30;18.20;;;2.30;;
64500;SDS011;50874;24.150;-110.320;2024-03-25T10:38:01;11.43;;;1.70;;
64500;SDS011;50874;24.150;-110.320;2024-03-25T10:40:31;6.80;;;1.55;;
64500;SDS011;50874;24.150;-110.320;2024-03-25T10:43:02;11.50;;;2.95;;
64500;SDS011;50874;24.150;-110.320;2024-03-25T10:45:47;14.35;;;1.85;;
64500;SDS011;50874;24.150;-110.320;2024-03-25T10:48:15;13.70;;;2.72;;
64500;SDS011;50874;24.150;-110.320;2024-03-25T10:50:53;8.93;;;1.75;;
64500;SDS011;50874;24.150;-110.320;2024-03-25T10:53:22;11.10;;;2.15;;
64500;SDS011;50874;24.150;-110.320;2024-03-25T10:55:50;7.82;;;1.90;;
64500;SDS011;50874;24.150;-110.320;2024-03-25T10:58:19;12.07;;;3.03;;
64500;SDS011;50874;24.150;-110.320;2024-03-25T11:00:51;21.15;;;2.85;;
64500;SDS011;50874;24.150;-110.320;2024-03-25T11:05:48;17.80;;;2.97;;
64500;SDS011;50874;24.150;-110.320;2024-03-25T11:08:16;17.48;;;2.28;;
64500;SDS011;50874;24.150;-110.320;2024-03-25T11:10:43;14.80;;;2.15;;
64500;SDS011;50874;24.150;-110.320;2024-03-25T11:13:17;10.55;;;2.00;;
64500;SDS011;50874;24.150;-110.320;2024-03-25T11:15:44;14.45;;;2.38;;
64500;SDS011;50874;24.150;-110.320;2024-03-25T11:18:13;11.63;;;2.25;;
64500;SDS011;50874;24.150;-110.320;2024-03-25T11:20:40;8.77;;;2.13;;
64500;SDS011;50874;24.150;-110.320;2024-03-25T11:23:11;10.45;;;1.45;;
64500;SDS011;50874;24.150;-110.320;2024-03-25T11:25:39;10.02;;;1.60;;
64500;SDS011;50874;24.150;-110.320;2024-03-25T11:28:07;13.10;;;2.50;;
64500;SDS011;50874;24.150;-110.320;2024-03-25T11:30:36;16.23;;;1.92;;
64500;SDS011;50874;24.150;-110.320;2024-03-25T11:33:03;16.73;;;2.72;;
64500;SDS011;50874;24.150;-110.320;2024-03-25T11:35:39;18.85;;;2.55;;
64500;SDS011;50874;24.150;-110.320;2024-03-25T11:38:05;15.75;;;2.05;;
64500;SDS011;50874;24.150;-110.320;2024-03-25T11:40:31;8.75;;;2.13;;
64500;SDS011;50874;24.150;-110.320;2024-03-25T11:42:58;18.58;;;2.85;;
64500;SDS011;50874;24.150;-110.320;2024-03-25T11:45:25;27.10;;;2.63;;
64500;SDS011;50874;24.150;-110.320;2024-03-25T11:47:51;16.63;;;2.17;;
64500;SDS011;50874;24.150;-110.320;2024-03-25T11:50:18;20.77;;;2.10;;
64500;SDS011;50874;24.150;-110.320;2024-03-25T11:52:45;20.15;;;2.53;;
64500;SDS011;50874;24.150;-110.320;2024-03-25T11:55:16;18.75;;;2.33;;
64500;SDS011;50874;24.150;-110.320;2024-03-25T11:57:43;15.13;;;2.75;;
64500;SDS011;50874;24.150;-110.320;2024-03-25T12:00:09;16.42;;;2.70;;
64500;SDS011;50874;24.150;-110.320;2024-03-25T12:02:48;15.30;;;2.60;;
64500;SDS011;50874;24.150;-110.320;2024-03-25T12:05:14;13.18;;;2.50;;
64500;SDS011;50874;24.150;-110.320;2024-03-25T12:07:41;12.55;;;1.70;;
64500;SDS011;50874;24.150;-110.320;2024-03-25T12:10:07;14.85;;;2.53;;
64500;SDS011;50874;24.150;-110.320;2024-03-25T12:12:52;14.52;;;2.58;;
64500;SDS011;50874;24.150;-110.320;2024-03-25T12:15:19;17.67;;;2.97;;
64500;SDS011;50874;24.150;-110.320;2024-03-25T12:17:46;7.20;;;1.58;;
64500;SDS011;50874;24.150;-110.320;2024-03-25T12:20:13;14.25;;;2.30;;
64500;SDS011;50874;24.150;-110.320;2024-03-25T12:22:39;11.70;;;2.40;;
64500;SDS011;50874;24.150;-110.320;2024-03-25T12:25:06;14.98;;;2.33;;
64500;SDS011;50874;24.150;-110.320;2024-03-25T12:27:35;12.73;;;2.28;;
64500;SDS011;50874;24.150;-110.320;2024-03-25T12:30:06;16.90;;;2.28;;
64500;SDS011;50874;24.150;-110.320;2024-03-25T12:32:41;20.45;;;2.25;;
64500;SDS011;50874;24.150;-110.320;2024-03-25T12:35:09;16.70;;;2.25;;
64500;SDS011;50874;24.150;-110.320;2024-03-25T12:37:40;6.38;;;1.75;;
64500;SDS011;50874;24.150;-110.320;2024-03-25T12:40:09;17.33;;;2.83;;
64500;SDS011;50874;24.150;-110.320;2024-03-25T12:42:37;16.40;;;2.30;;
64500;SDS011;50874;24.150;-110.320;2024-03-25T12:45:06;12.60;;;2.22;;
64500;SDS011;50874;24.150;-110.320;2024-03-25T12:47:34;16.17;;;2.40;;
64500;SDS011;50874;24.150;-110.320;2024-03-25T12:50:00;20.30;;;2.33;;
64500;SDS011;50874;24.150;-110.320;2024-03-25T12:52:27;8.65;;;1.88;;
64500;SDS011;50874;24.150;-110.320;2024-03-25T12:54:53;12.00;;;2.35;;
64500;SDS011;50874;24.150;-110.320;2024-03-25T12:57:20;13.82;;;2.65;;
64500;SDS011;50874;24.150;-110.320;2024-03-25T12:59:46;19.20;;;2.55;;
64500;SDS011;50874;24.150;-110.320;2024-03-25T13:02:13;23.85;;;3.67;;
64500;SDS011;50874;24.150;-110.320;2024-03-25T13:04:40;26.33;;;3.45;;
64500;SDS011;50874;24.150;-110.320;2024-03-25T13:07:08;33.30;;;4.47;;
64500;SDS011;50874;24.150;-110.320;2024-03-25T13:09:34;22.17;;;3.58;;
64500;SDS011;50874;24.150;-110.320;2024-03-25T13:12:01;37.65;;;5.40;;
64500;SDS011;50874;24.150;-110.320;2024-03-25T13:14:28;43.45;;;4.95;;
64500;SDS011;50874;24.150;-110.320;2024-03-25T13:16:55;32.03;;;4.03;;
64500;SDS011;50874;24.150;-110.320;2024-03-25T13:19:21;17.58;;;3.75;;
64500;SDS011;50874;24.150;-110.320;2024-03-25T13:21:48;21.98;;;3.40;;
64500;SDS011;50874;24.150;-110.320;2024-03-25T13:24:14;18.00;;;2.58;;
64500;SDS011;50874;24.150;-110.320;2024-03-25T13:26:41;33.00;;;3.35;;
64500;SDS011;50874;24.150;-110.320;2024-03-25T13:29:07;29.63;;;4.10;;
64500;SDS011;50874;24.150;-110.320;2024-03-25T13:31:34;38.10;;;3.33;;
64500;SDS011;50874;24.150;-110.320;2024-03-25T13:34:00;35.22;;;5.18;;
64500;SDS011;50874;24.150;-110.320;2024-03-25T13:36:28;40.33;;;5.07;;
64500;SDS011;50874;24.150;-110.320;2024-03-25T13:38:54;39.53;;;5.22;;
64500;SDS011;50874;24.150;-110.320;2024-03-25T13:41:20;60.70;;;5.80;;
64500;SDS011;50874;24.150;-110.320;2024-03-25T13:43:49;22.20;;;3.20;;
64500;SDS011;50874;24.150;-110.320;2024-03-25T13:46:15;24.73;;;4.32;;
64500;SDS011;50874;24.150;-110.320;2024-03-25T13:48:42;32.30;;;3.13;;
64500;SDS011;50874;24.150;-110.320;2024-03-25T13:51:09;32.88;;;3.72;;
64500;SDS011;50874;24.150;-110.320;2024-03-25T13:53:35;37.42;;;4.60;;
64500;SDS011;50874;24.150;-110.320;2024-03-25T13:56:01;32.10;;;3.90;;
64500;SDS011;50874;24.150;-110.320;2024-03-25T13:58:28;31.45;;;4.03;;
64500;SDS011;50874;24.150;-110.320;2024-03-25T14:00:55;22.45;;;3.05;;
64500;SDS011;50874;24.150;-110.320;2024-03-25T14:03:21;33.33;;;4.32;;
64500;SDS011;50874;24.150;-110.320;2024-03-25T14:05:49;26.20;;;3.38;;